createdAt,value
2016-12-28T00:00:00.108Z,0
2016-12-28T00:00:30.147Z,0
2016-12-28T00:01:00.187Z,0
2016-12-28T00:01:30.224Z,0
2016-12-28T00:02:00.270Z,0
2016-12-28T00:02:30.302Z,0
2016-12-28T00:03:00.343Z,0
2016-12-28T00:03:30.388Z,0
2016-12-28T00:04:00.423Z,0
2016-12-28T00:04:30.467Z,0
2016-12-28T00:05:00.502Z,0
2016-12-28T00:05:30.549Z,0
2016-12-28T00:06:00.576Z,0
2016-12-28T00:06:30.626Z,0
2016-12-28T00:07:00.662Z,0
2016-12-28T00:07:30.708Z,0
2016-12-28T00:08:00.732Z,0
2016-12-28T00:08:30.778Z,0
2016-12-28T00:09:00.820Z,0
2016-12-28T00:09:30.863Z,0
2016-12-28T00:10:00.895Z,0
2016-12-28T00:10:30.938Z,0
2016-12-28T00:11:00.975Z,0
2016-12-28T00:11:31.007Z,0
2016-12-28T00:12:01.060Z,0
2016-12-28T00:12:31.093Z,0
2016-12-28T00:13:01.140Z,0
2016-12-28T00:13:31.174Z,0
2016-12-28T00:14:01.213Z,0
2016-12-28T00:14:31.254Z,0
2016-12-28T00:15:01.299Z,0
2016-12-28T00:15:31.337Z,0
2016-12-28T00:16:01.367Z,0
2016-12-28T00:16:31.408Z,0
2016-12-28T00:17:01.454Z,0
2016-12-28T00:17:31.487Z,0
2016-12-28T00:18:01.531Z,0
2016-12-28T00:18:31.568Z,0
2016-12-28T00:19:01.833Z,0
2016-12-28T00:19:31.643Z,0
2016-12-28T00:20:01.689Z,0
2016-12-28T00:20:31.753Z,0
2016-12-28T00:21:01.766Z,0
2016-12-28T00:21:31.808Z,0
2016-12-28T00:22:01.964Z,0
2016-12-28T00:22:31.889Z,0
2016-12-28T00:23:02.065Z,0
2016-12-28T00:23:31.965Z,0
2016-12-28T00:24:02.350Z,0
2016-12-28T00:24:32.097Z,0
2016-12-28T00:25:02.341Z,0
2016-12-28T00:25:32.118Z,0
2016-12-28T00:26:02.158Z,0
2016-12-28T00:26:32.192Z,0
2016-12-28T00:27:02.607Z,0
2016-12-28T00:27:32.281Z,0
2016-12-28T00:28:02.328Z,0
2016-12-28T00:28:32.357Z,0
2016-12-28T00:29:02.396Z,0
2016-12-28T00:29:32.444Z,0
2016-12-28T00:30:02.650Z,0
2016-12-28T00:30:32.513Z,0
2016-12-28T00:31:02.565Z,0
2016-12-28T00:31:32.597Z,0
2016-12-28T00:32:02.635Z,0
2016-12-28T00:32:32.684Z,0
2016-12-28T00:33:02.719Z,0
2016-12-28T00:33:32.748Z,0
2016-12-28T00:34:02.792Z,0
2016-12-28T00:34:32.832Z,0
2016-12-28T00:35:02.988Z,0
2016-12-28T00:35:32.904Z,0
2016-12-28T00:36:03.206Z,0
2016-12-28T00:36:33.019Z,0
2016-12-28T00:37:03.034Z,0
2016-12-28T00:37:33.065Z,0
2016-12-28T00:38:03.282Z,0
2016-12-28T00:38:33.146Z,0
2016-12-28T00:39:03.282Z,0
2016-12-28T00:39:33.229Z,0
2016-12-28T00:40:03.271Z,0
2016-12-28T00:40:33.301Z,0
2016-12-28T00:41:03.361Z,0
2016-12-28T00:41:33.392Z,0
2016-12-28T00:42:03.425Z,0
2016-12-28T00:42:33.468Z,0
2016-12-28T00:43:03.501Z,0
2016-12-28T00:43:33.541Z,0
2016-12-28T00:44:03.888Z,0
2016-12-28T00:44:33.616Z,0
2016-12-28T00:45:03.709Z,0
2016-12-28T00:45:33.695Z,0
2016-12-28T00:46:04.013Z,0
2016-12-28T00:46:33.776Z,0
2016-12-28T00:47:03.815Z,0
2016-12-28T00:47:33.855Z,0
2016-12-28T00:48:04.198Z,0
2016-12-28T00:48:33.932Z,0
2016-12-28T00:49:03.969Z,0
2016-12-28T00:49:34.016Z,0
2016-12-28T00:50:04.054Z,0
2016-12-28T00:50:34.088Z,0
2016-12-28T00:51:04.484Z,0
2016-12-28T00:51:34.182Z,0
2016-12-28T00:52:04.223Z,0
2016-12-28T00:52:34.285Z,0
2016-12-28T00:53:04.291Z,0
2016-12-28T00:53:34.329Z,0
2016-12-28T00:54:04.474Z,0
2016-12-28T00:54:34.410Z,0
2016-12-28T00:55:04.449Z,0
2016-12-28T00:55:34.487Z,0
2016-12-28T00:56:04.529Z,0
2016-12-28T00:56:34.598Z,0
2016-12-28T00:57:04.608Z,0
2016-12-28T00:57:34.645Z,0
2016-12-28T00:58:04.688Z,0
2016-12-28T00:58:34.758Z,0
2016-12-28T00:59:04.763Z,0
2016-12-28T00:59:34.809Z,0
2016-12-28T01:00:04.846Z,0
2016-12-28T01:00:34.884Z,0
2016-12-28T01:01:04.923Z,0
2016-12-28T01:01:34.967Z,0
2016-12-28T01:02:05.034Z,0
2016-12-28T01:02:35.038Z,0
2016-12-28T01:03:05.079Z,0
2016-12-28T01:03:35.120Z,0
2016-12-28T01:04:05.156Z,0
2016-12-28T01:04:35.197Z,0
2016-12-28T01:05:05.236Z,0
2016-12-28T01:05:35.267Z,0
2016-12-28T01:06:05.320Z,0
2016-12-28T01:06:35.358Z,0
2016-12-28T01:07:05.397Z,0
2016-12-28T01:07:35.436Z,0
2016-12-28T01:08:05.483Z,0
2016-12-28T01:08:35.523Z,0
2016-12-28T01:09:05.561Z,0
2016-12-28T01:09:35.586Z,0
2016-12-28T01:10:05.637Z,0
2016-12-28T01:10:35.818Z,0
2016-12-28T01:11:05.725Z,0
2016-12-28T01:11:35.751Z,0
2016-12-28T01:12:05.786Z,0
2016-12-28T01:12:35.828Z,0
2016-12-28T01:13:05.872Z,0
2016-12-28T01:13:35.909Z,0
2016-12-28T01:14:05.953Z,0
2016-12-28T01:14:35.985Z,0
2016-12-28T01:15:06.031Z,0
2016-12-28T01:15:36.064Z,0
2016-12-28T01:16:06.109Z,0
2016-12-28T01:16:36.147Z,0
2016-12-28T01:17:06.185Z,0
2016-12-28T01:17:36.225Z,0
2016-12-28T01:18:06.265Z,0
2016-12-28T01:18:36.303Z,0
2016-12-28T01:19:06.343Z,0
2016-12-28T01:19:36.382Z,0
2016-12-28T01:20:06.426Z,0
2016-12-28T01:20:36.467Z,0
2016-12-28T01:21:06.503Z,0
2016-12-28T01:21:36.553Z,0
2016-12-28T01:22:06.578Z,0
2016-12-28T01:22:36.620Z,0
2016-12-28T01:23:06.654Z,0
2016-12-28T01:23:36.712Z,0
2016-12-28T01:24:06.765Z,0
2016-12-28T01:24:36.775Z,0
2016-12-28T01:25:06.825Z,0
2016-12-28T01:25:36.852Z,0
2016-12-28T01:26:07.009Z,0
2016-12-28T01:26:36.931Z,0
2016-12-28T01:27:06.984Z,0
2016-12-28T01:27:37.013Z,0
2016-12-28T01:28:07.055Z,0
2016-12-28T01:28:37.099Z,0
2016-12-28T01:29:07.129Z,0
2016-12-28T01:29:37.172Z,0
2016-12-28T01:30:07.224Z,0
2016-12-28T01:30:37.284Z,0
2016-12-28T01:31:07.292Z,0
2016-12-28T01:31:37.361Z,0
2016-12-28T01:32:07.485Z,0
2016-12-28T01:32:37.408Z,0
2016-12-28T01:33:07.474Z,0
2016-12-28T01:33:37.483Z,0
2016-12-28T01:34:07.532Z,0
2016-12-28T01:34:37.566Z,0
2016-12-28T01:35:07.601Z,0
2016-12-28T01:35:37.649Z,0
2016-12-28T01:36:07.684Z,0
2016-12-28T01:36:37.724Z,0
2016-12-28T01:37:07.766Z,0
2016-12-28T01:37:37.805Z,0
2016-12-28T01:38:07.843Z,0
2016-12-28T01:38:37.887Z,0
2016-12-28T01:39:07.925Z,0
2016-12-28T01:39:37.963Z,0
2016-12-28T01:40:08.000Z,0
2016-12-28T01:40:38.042Z,0
2016-12-28T01:41:08.283Z,0
2016-12-28T01:41:38.117Z,0
2016-12-28T01:42:08.157Z,0
2016-12-28T01:42:38.199Z,0
2016-12-28T01:43:08.231Z,0
2016-12-28T01:43:38.268Z,0
2016-12-28T01:44:08.316Z,0
2016-12-28T01:44:38.388Z,0
2016-12-28T01:45:08.393Z,0
2016-12-28T01:45:38.440Z,0
2016-12-28T01:46:08.481Z,0
2016-12-28T01:46:38.509Z,0
2016-12-28T01:47:08.554Z,0
2016-12-28T01:47:38.590Z,0
2016-12-28T01:48:08.633Z,0
2016-12-28T01:48:38.666Z,0
2016-12-28T01:49:08.712Z,0
2016-12-28T01:49:38.749Z,0
2016-12-28T01:50:08.785Z,0
2016-12-28T01:50:38.823Z,0
2016-12-28T01:51:08.880Z,0
2016-12-28T01:51:38.936Z,0
2016-12-28T01:52:08.951Z,0
2016-12-28T01:52:38.994Z,0
2016-12-28T01:53:09.024Z,0
2016-12-28T01:53:39.071Z,0
2016-12-28T01:54:09.107Z,0
2016-12-28T01:54:39.144Z,0
2016-12-28T01:55:09.188Z,0
2016-12-28T01:55:39.224Z,0
2016-12-28T01:56:09.267Z,0
2016-12-28T01:56:39.303Z,0
2016-12-28T01:57:09.336Z,0
2016-12-28T01:57:39.385Z,0
2016-12-28T01:58:09.421Z,0
2016-12-28T01:58:39.465Z,0
2016-12-28T01:59:09.497Z,0
2016-12-28T01:59:39.543Z,0
2016-12-28T02:00:09.580Z,0
2016-12-28T02:00:39.620Z,0
2016-12-28T02:01:09.676Z,0
2016-12-28T02:01:39.695Z,0
2016-12-28T02:02:09.743Z,0
2016-12-28T02:02:39.768Z,0
2016-12-28T02:03:09.821Z,0
2016-12-28T02:03:39.858Z,0
2016-12-28T02:04:09.907Z,0
2016-12-28T02:04:39.932Z,0
2016-12-28T02:05:09.968Z,0
2016-12-28T02:05:40.009Z,0
2016-12-28T02:06:10.050Z,0
2016-12-28T02:06:40.089Z,0
2016-12-28T02:07:10.138Z,0
2016-12-28T02:07:40.167Z,0
2016-12-28T02:08:10.206Z,0
2016-12-28T02:08:40.244Z,0
2016-12-28T02:09:10.304Z,0
2016-12-28T02:09:40.357Z,0
2016-12-28T02:10:10.371Z,0
2016-12-28T02:10:40.404Z,0
2016-12-28T02:11:10.444Z,0
2016-12-28T02:11:40.484Z,0
2016-12-28T02:12:10.527Z,0
2016-12-28T02:12:40.594Z,0
2016-12-28T02:13:10.601Z,0
2016-12-28T02:13:40.644Z,0
2016-12-28T02:14:10.679Z,0
2016-12-28T02:14:40.725Z,0
2016-12-28T02:15:10.881Z,0
2016-12-28T02:15:40.791Z,0
2016-12-28T02:16:10.838Z,0
2016-12-28T02:16:40.882Z,0
2016-12-28T02:17:10.919Z,0
2016-12-28T02:17:40.957Z,0
2016-12-28T02:18:11.004Z,0
2016-12-28T02:18:41.067Z,0
2016-12-28T02:19:11.077Z,0
2016-12-28T02:19:41.115Z,0
2016-12-28T02:20:11.147Z,0
2016-12-28T02:20:41.202Z,0
2016-12-28T02:21:11.228Z,0
2016-12-28T02:21:41.278Z,0
2016-12-28T02:22:11.615Z,0
2016-12-28T02:22:41.349Z,0
2016-12-28T02:23:11.384Z,0
2016-12-28T02:23:41.435Z,0
2016-12-28T02:24:11.470Z,0
2016-12-28T02:24:41.506Z,0
2016-12-28T02:25:11.553Z,0
2016-12-28T02:25:41.608Z,0
2016-12-28T02:26:11.622Z,0
2016-12-28T02:26:41.666Z,0
2016-12-28T02:27:11.765Z,0
2016-12-28T02:27:41.745Z,0
2016-12-28T02:28:11.789Z,0
2016-12-28T02:28:41.829Z,0
2016-12-28T02:29:11.864Z,0
2016-12-28T02:29:41.909Z,0
2016-12-28T02:30:11.944Z,0
2016-12-28T02:30:41.983Z,0
2016-12-28T02:31:12.021Z,0
2016-12-28T02:31:42.051Z,0
2016-12-28T02:32:12.099Z,0
2016-12-28T02:32:42.148Z,0
2016-12-28T02:33:12.185Z,0
2016-12-28T02:33:42.219Z,0
2016-12-28T02:34:12.259Z,0
2016-12-28T02:34:42.308Z,0
2016-12-28T02:35:12.342Z,0
2016-12-28T02:35:42.379Z,0
2016-12-28T02:36:12.415Z,0
2016-12-28T02:36:42.574Z,0
2016-12-28T02:37:12.498Z,0
2016-12-28T02:37:42.525Z,0
2016-12-28T02:38:12.576Z,0
2016-12-28T02:38:42.617Z,0
2016-12-28T02:39:12.776Z,0
2016-12-28T02:39:42.719Z,0
2016-12-28T02:40:12.718Z,0
2016-12-28T02:40:42.766Z,0
2016-12-28T02:41:12.810Z,0
2016-12-28T02:41:42.843Z,0
2016-12-28T02:42:12.894Z,0
2016-12-28T02:42:42.928Z,0
2016-12-28T02:43:12.965Z,0
2016-12-28T02:43:43.004Z,0
2016-12-28T02:44:13.043Z,0
2016-12-28T02:44:43.082Z,0
2016-12-28T02:45:13.123Z,0
2016-12-28T02:45:43.281Z,0
2016-12-28T02:46:13.194Z,0
2016-12-28T02:46:43.242Z,0
2016-12-28T02:47:13.282Z,0
2016-12-28T02:47:43.341Z,0
2016-12-28T02:48:13.365Z,0
2016-12-28T02:48:43.399Z,0
2016-12-28T02:49:13.436Z,0
2016-12-28T02:49:43.476Z,0
2016-12-28T02:50:13.512Z,0
2016-12-28T02:50:43.557Z,0
2016-12-28T02:51:13.597Z,0
2016-12-28T02:51:43.640Z,0
2016-12-28T02:52:13.682Z,0
2016-12-28T02:52:43.719Z,0
2016-12-28T02:53:13.750Z,0
2016-12-28T02:53:43.796Z,0
2016-12-28T02:54:13.837Z,0
2016-12-28T02:54:43.877Z,0
2016-12-28T02:55:13.926Z,0
2016-12-28T02:55:43.960Z,0
2016-12-28T02:56:13.989Z,0
2016-12-28T02:56:44.026Z,0
2016-12-28T02:57:14.064Z,0
2016-12-28T02:57:44.107Z,0
2016-12-28T02:58:14.142Z,0
2016-12-28T02:58:44.186Z,0
2016-12-28T02:59:14.223Z,0
2016-12-28T02:59:44.264Z,0
2016-12-28T03:00:14.307Z,0
2016-12-28T03:00:44.342Z,0
2016-12-28T03:01:14.382Z,0
2016-12-28T03:01:44.428Z,0
2016-12-28T03:02:44.502Z,0
2016-12-28T03:03:14.537Z,0
2016-12-28T03:03:44.585Z,0
2016-12-28T03:04:14.624Z,0
2016-12-28T03:04:44.661Z,0
2016-12-28T03:05:14.699Z,0
2016-12-28T03:05:44.750Z,0
2016-12-28T03:06:14.784Z,0
2016-12-28T03:06:44.814Z,0
2016-12-28T03:07:14.856Z,0
2016-12-28T03:07:44.898Z,0
2016-12-28T03:08:14.933Z,0
2016-12-28T03:08:44.971Z,0
2016-12-28T03:09:15.023Z,0
2016-12-28T03:09:45.055Z,0
2016-12-28T03:10:15.093Z,0
2016-12-28T03:10:45.162Z,0
2016-12-28T03:11:15.175Z,0
2016-12-28T03:11:45.215Z,0
2016-12-28T03:12:15.247Z,0
2016-12-28T03:12:45.297Z,0
2016-12-28T03:13:15.329Z,0
2016-12-28T03:13:45.378Z,0
2016-12-28T03:14:15.408Z,0
2016-12-28T03:14:45.452Z,0
2016-12-28T03:15:15.495Z,0
2016-12-28T03:15:45.524Z,0
2016-12-28T03:16:15.570Z,0
2016-12-28T03:16:45.604Z,0
2016-12-28T03:17:15.651Z,0
2016-12-28T03:17:45.688Z,0
2016-12-28T03:18:15.727Z,0
2016-12-28T03:18:45.892Z,0
2016-12-28T03:19:15.805Z,0
2016-12-28T03:19:45.846Z,0
2016-12-28T03:20:15.882Z,0
2016-12-28T03:20:45.915Z,0
2016-12-28T03:21:15.995Z,0
2016-12-28T03:21:46.002Z,0
2016-12-28T03:22:16.044Z,0
2016-12-28T03:22:46.077Z,0
2016-12-28T03:23:16.120Z,0
2016-12-28T03:23:46.162Z,0
2016-12-28T03:24:16.200Z,0
2016-12-28T03:24:46.231Z,0
2016-12-28T03:25:16.274Z,0
2016-12-28T03:25:46.322Z,0
2016-12-28T03:26:16.371Z,0
2016-12-28T03:26:46.390Z,0
2016-12-28T03:27:16.435Z,0
2016-12-28T03:27:46.473Z,0
2016-12-28T03:28:16.611Z,0
2016-12-28T03:28:46.550Z,0
2016-12-28T03:29:16.597Z,0
2016-12-28T03:29:46.624Z,0
2016-12-28T03:30:16.664Z,0
2016-12-28T03:30:46.709Z,0
2016-12-28T03:31:16.748Z,0
2016-12-28T03:31:46.784Z,0
2016-12-28T03:32:16.830Z,0
2016-12-28T03:32:46.873Z,0
2016-12-28T03:33:16.904Z,0
2016-12-28T03:33:46.945Z,0
2016-12-28T03:34:17.012Z,0
2016-12-28T03:34:47.029Z,0
2016-12-28T03:35:17.059Z,0
2016-12-28T03:35:47.110Z,0
2016-12-28T03:36:17.141Z,0
2016-12-28T03:36:47.184Z,0
2016-12-28T03:37:17.222Z,0
2016-12-28T03:37:47.257Z,0
2016-12-28T03:38:17.295Z,0
2016-12-28T03:38:47.346Z,0
2016-12-28T03:39:17.386Z,0
2016-12-28T03:39:47.441Z,0
2016-12-28T03:40:17.468Z,0
2016-12-28T03:40:47.504Z,0
2016-12-28T03:41:17.533Z,0
2016-12-28T03:41:47.573Z,0
2016-12-28T03:42:17.613Z,0
2016-12-28T03:42:47.687Z,0
2016-12-28T03:43:17.651Z,0
2016-12-28T03:43:47.783Z,0
2016-12-28T03:44:17.777Z,0
2016-12-28T03:44:47.813Z,0
2016-12-28T03:45:17.860Z,0
2016-12-28T03:45:47.888Z,0
2016-12-28T03:46:17.932Z,0
2016-12-28T03:46:47.970Z,0
2016-12-28T03:47:18.036Z,0
2016-12-28T03:47:48.048Z,0
2016-12-28T03:48:18.089Z,0
2016-12-28T03:48:48.257Z,0
2016-12-28T03:49:18.169Z,0
2016-12-28T03:49:48.215Z,0
2016-12-28T03:50:18.250Z,0
2016-12-28T03:50:48.305Z,0
2016-12-28T03:51:18.328Z,0
2016-12-28T03:51:48.379Z,0
2016-12-28T03:52:18.408Z,0
2016-12-28T03:52:48.450Z,0
2016-12-28T03:53:18.486Z,0
2016-12-28T03:53:48.530Z,0
2016-12-28T03:54:18.560Z,0
2016-12-28T03:54:48.611Z,0
2016-12-28T03:55:18.646Z,0
2016-12-28T03:55:48.693Z,0
2016-12-28T03:56:18.721Z,0
2016-12-28T03:56:48.754Z,0
2016-12-28T03:57:18.799Z,0
2016-12-28T03:57:48.844Z,0
2016-12-28T03:58:18.881Z,0
2016-12-28T03:58:48.916Z,0
2016-12-28T03:59:18.959Z,0
2016-12-28T03:59:49.005Z,0
2016-12-28T04:00:19.036Z,0
2016-12-28T04:00:49.072Z,0
2016-12-28T04:01:19.112Z,0
2016-12-28T04:01:49.154Z,0
2016-12-28T04:02:19.188Z,0
2016-12-28T04:02:49.234Z,0
2016-12-28T04:03:19.269Z,0
2016-12-28T04:03:49.316Z,0
2016-12-28T04:04:19.353Z,0
2016-12-28T04:04:49.395Z,0
2016-12-28T04:05:19.441Z,0
2016-12-28T04:05:49.470Z,0
2016-12-28T04:06:19.514Z,0
2016-12-28T04:06:49.550Z,0
2016-12-28T04:07:19.587Z,0
2016-12-28T04:07:49.632Z,0
2016-12-28T04:08:19.667Z,0
2016-12-28T04:08:49.703Z,0
2016-12-28T04:09:19.752Z,0
2016-12-28T04:09:49.779Z,0
2016-12-28T04:10:19.825Z,0
2016-12-28T04:10:49.856Z,0
2016-12-28T04:11:19.910Z,0
2016-12-28T04:11:49.940Z,0
2016-12-28T04:12:19.981Z,0
2016-12-28T04:12:50.023Z,0
2016-12-28T04:13:20.068Z,0
2016-12-28T04:13:50.103Z,0
2016-12-28T04:14:20.542Z,0
2016-12-28T04:14:50.187Z,0
2016-12-28T04:15:20.222Z,0
2016-12-28T04:15:50.291Z,0
2016-12-28T04:16:20.294Z,0
2016-12-28T04:16:50.345Z,0
2016-12-28T04:17:20.375Z,0
2016-12-28T04:17:50.413Z,0
2016-12-28T04:18:20.456Z,0
2016-12-28T04:18:50.494Z,0
2016-12-28T04:19:20.556Z,0
2016-12-28T04:19:50.580Z,0
2016-12-28T04:20:20.613Z,0
2016-12-28T04:20:50.656Z,0
2016-12-28T04:21:20.695Z,0
2016-12-28T04:21:50.760Z,0
2016-12-28T04:22:20.771Z,0
2016-12-28T04:22:50.815Z,0
2016-12-28T04:23:20.846Z,0
2016-12-28T04:23:50.892Z,0
2016-12-28T04:24:20.927Z,0
2016-12-28T04:24:50.972Z,0
2016-12-28T04:25:21.007Z,0
2016-12-28T04:25:51.046Z,0
2016-12-28T04:26:21.099Z,0
2016-12-28T04:26:51.128Z,0
2016-12-28T04:27:21.165Z,0
2016-12-28T04:27:51.209Z,0
2016-12-28T04:28:21.243Z,0
2016-12-28T04:28:51.287Z,0
2016-12-28T04:29:21.326Z,0
2016-12-28T04:29:51.574Z,0
2016-12-28T04:30:21.408Z,0
2016-12-28T04:30:51.445Z,0
2016-12-28T04:31:21.481Z,0
2016-12-28T04:31:51.526Z,0
2016-12-28T04:32:21.559Z,0
2016-12-28T04:32:51.605Z,0
2016-12-28T04:33:21.639Z,0
2016-12-28T04:33:51.676Z,0
2016-12-28T04:34:21.718Z,0
2016-12-28T04:34:51.767Z,0
2016-12-28T04:35:21.792Z,0
2016-12-28T04:35:51.836Z,0
2016-12-28T04:36:21.881Z,0
2016-12-28T04:36:51.919Z,0
2016-12-28T04:37:21.952Z,0
2016-12-28T04:37:51.996Z,0
2016-12-28T04:38:22.029Z,0
2016-12-28T04:38:52.071Z,0
2016-12-28T04:39:22.118Z,0
2016-12-28T04:39:52.175Z,0
2016-12-28T04:40:22.187Z,0
2016-12-28T04:40:52.228Z,0
2016-12-28T04:41:22.268Z,0
2016-12-28T04:41:52.310Z,0
2016-12-28T04:42:22.343Z,0
2016-12-28T04:42:52.387Z,0
2016-12-28T04:43:22.427Z,0
2016-12-28T04:43:52.460Z,0
2016-12-28T04:44:22.501Z,0
2016-12-28T04:44:52.600Z,0
2016-12-28T04:45:22.587Z,0
2016-12-28T04:45:52.627Z,0
2016-12-28T04:46:22.664Z,0
2016-12-28T04:46:52.721Z,0
2016-12-28T04:47:22.749Z,0
2016-12-28T04:47:52.784Z,0
2016-12-28T04:48:22.824Z,0
2016-12-28T04:48:52.868Z,0
2016-12-28T04:49:22.902Z,0
2016-12-28T04:49:52.940Z,0
2016-12-28T04:50:22.985Z,0
2016-12-28T04:50:53.023Z,0
2016-12-28T04:51:23.057Z,0
2016-12-28T04:51:53.094Z,0
2016-12-28T04:52:23.143Z,0
2016-12-28T04:52:53.192Z,0
2016-12-28T04:53:23.222Z,0
2016-12-28T04:53:53.252Z,0
2016-12-28T04:54:23.303Z,0
2016-12-28T04:54:53.329Z,0
2016-12-28T04:55:23.371Z,0
2016-12-28T04:55:53.420Z,0
2016-12-28T04:56:23.459Z,0
2016-12-28T04:56:53.497Z,0
2016-12-28T04:57:23.549Z,0
2016-12-28T04:57:53.569Z,0
2016-12-28T04:58:23.614Z,0
2016-12-28T04:58:53.659Z,0
2016-12-28T04:59:23.691Z,0
2016-12-28T04:59:53.733Z,0
2016-12-28T05:00:23.777Z,0
2016-12-28T05:00:53.799Z,0
2016-12-28T05:01:23.851Z,0
2016-12-28T05:01:53.891Z,0
2016-12-28T05:02:23.930Z,0
2016-12-28T05:02:53.969Z,0
2016-12-28T05:03:24.013Z,0
2016-12-28T05:03:54.049Z,0
2016-12-28T05:04:24.089Z,0
2016-12-28T05:04:54.127Z,0
2016-12-28T05:05:24.163Z,0
2016-12-28T05:05:54.203Z,0
2016-12-28T05:06:24.242Z,0
2016-12-28T05:06:54.283Z,0
2016-12-28T05:07:24.322Z,0
2016-12-28T05:07:54.365Z,0
2016-12-28T05:08:24.410Z,0
2016-12-28T05:08:54.442Z,0
2016-12-28T05:09:24.483Z,0
2016-12-28T05:09:54.524Z,0
2016-12-28T05:10:24.566Z,0
2016-12-28T05:10:54.603Z,0
2016-12-28T05:11:24.660Z,0
2016-12-28T05:11:54.690Z,0
2016-12-28T05:12:24.715Z,0
2016-12-28T05:12:54.768Z,0
2016-12-28T05:13:24.936Z,0
2016-12-28T05:13:54.841Z,0
2016-12-28T05:14:24.994Z,0
2016-12-28T05:14:54.912Z,0
2016-12-28T05:15:24.953Z,0
2016-12-28T05:15:54.992Z,0
2016-12-28T05:16:25.041Z,0
2016-12-28T05:16:55.193Z,0
2016-12-28T05:17:25.123Z,0
2016-12-28T05:17:55.154Z,0
2016-12-28T05:18:25.192Z,0
2016-12-28T05:18:55.233Z,0
2016-12-28T05:19:25.287Z,0
2016-12-28T05:19:55.314Z,0
2016-12-28T05:20:25.360Z,0
2016-12-28T05:20:55.391Z,0
2016-12-28T05:21:25.555Z,0
2016-12-28T05:21:55.469Z,0
2016-12-28T05:22:25.514Z,0
2016-12-28T05:22:55.548Z,0
2016-12-28T05:23:25.589Z,0
2016-12-28T05:23:55.629Z,0
2016-12-28T05:24:25.680Z,0
2016-12-28T05:24:55.712Z,0
2016-12-28T05:25:25.749Z,0
2016-12-28T05:25:55.830Z,0
2016-12-28T05:26:25.823Z,0
2016-12-28T05:26:55.871Z,0
2016-12-28T05:27:25.921Z,0
2016-12-28T05:27:55.946Z,0
2016-12-28T05:28:25.980Z,0
2016-12-28T05:28:56.025Z,0
2016-12-28T05:29:26.067Z,0
2016-12-28T05:29:56.102Z,0
2016-12-28T05:30:26.262Z,0
2016-12-28T05:30:56.185Z,0
2016-12-28T05:31:26.221Z,0
2016-12-28T05:31:56.256Z,0
2016-12-28T05:32:26.307Z,0
2016-12-28T05:32:56.345Z,0
2016-12-28T05:33:26.382Z,0
2016-12-28T05:33:56.417Z,0
2016-12-28T05:34:26.460Z,0
2016-12-28T05:34:56.496Z,0
2016-12-28T05:35:26.542Z,0
2016-12-28T05:35:56.592Z,0
2016-12-28T05:36:26.617Z,0
2016-12-28T05:36:56.653Z,0
2016-12-28T05:37:26.706Z,0
2016-12-28T05:37:56.731Z,0
2016-12-28T05:38:26.795Z,0
2016-12-28T05:38:56.814Z,0
2016-12-28T05:39:26.855Z,0
2016-12-28T05:39:56.896Z,0
2016-12-28T05:40:26.937Z,0
2016-12-28T05:40:56.968Z,0
2016-12-28T05:41:27.013Z,0
2016-12-28T05:41:57.052Z,0
2016-12-28T05:42:27.098Z,0
2016-12-28T05:42:57.134Z,0
2016-12-28T05:43:27.171Z,0
2016-12-28T05:43:57.207Z,0
2016-12-28T05:44:27.248Z,0
2016-12-28T05:45:00.833Z,0
2016-12-28T05:45:27.360Z,0
2016-12-28T05:45:57.368Z,0
2016-12-28T05:46:27.411Z,0
2016-12-28T05:46:57.447Z,0
2016-12-28T05:47:27.487Z,0
2016-12-28T05:47:57.524Z,0
2016-12-28T05:48:27.569Z,0
2016-12-28T05:48:57.599Z,0
2016-12-28T05:49:27.647Z,0
2016-12-28T05:49:57.686Z,0
2016-12-28T05:50:27.724Z,0
2016-12-28T05:50:57.770Z,0
2016-12-28T05:51:27.809Z,0
2016-12-28T05:51:57.841Z,0
2016-12-28T05:52:27.884Z,0
2016-12-28T05:52:57.931Z,0
2016-12-28T05:53:27.965Z,0
2016-12-28T05:53:58.002Z,0
2016-12-28T05:54:28.046Z,0
2016-12-28T05:54:58.085Z,0
2016-12-28T05:55:28.122Z,0
2016-12-28T05:55:58.155Z,0
2016-12-28T05:56:28.200Z,0
2016-12-28T05:56:58.240Z,0
2016-12-28T05:57:28.298Z,0
2016-12-28T05:57:58.337Z,0
2016-12-28T05:58:28.359Z,0
2016-12-28T05:58:58.394Z,0
2016-12-28T05:59:28.442Z,0
2016-12-28T05:59:58.476Z,0
2016-12-28T06:00:28.513Z,0
2016-12-28T06:00:58.562Z,0
2016-12-28T06:01:28.598Z,0
2016-12-28T06:01:58.632Z,0
2016-12-28T06:02:28.684Z,0
2016-12-28T06:02:58.718Z,0
2016-12-28T06:03:28.756Z,0
2016-12-28T06:03:58.795Z,0
2016-12-28T06:04:28.844Z,0
2016-12-28T06:04:58.877Z,0
2016-12-28T06:05:28.914Z,0
2016-12-28T06:05:58.956Z,0
2016-12-28T06:06:28.994Z,0
2016-12-28T06:06:59.026Z,0
2016-12-28T06:07:29.075Z,0
2016-12-28T06:07:59.115Z,0
2016-12-28T06:08:29.183Z,0
2016-12-28T06:08:59.191Z,0
2016-12-28T06:09:29.233Z,0
2016-12-28T06:09:59.392Z,0
2016-12-28T06:10:29.323Z,0
2016-12-28T06:10:59.347Z,0
2016-12-28T06:11:29.392Z,0
2016-12-28T06:11:59.435Z,0
2016-12-28T06:12:29.464Z,0
2016-12-28T06:12:59.503Z,0
2016-12-28T06:13:29.556Z,0
2016-12-28T06:13:59.590Z,0
2016-12-28T06:14:29.630Z,0
2016-12-28T06:14:59.671Z,0
2016-12-28T06:15:29.705Z,0
2016-12-28T06:15:59.746Z,0
2016-12-28T06:16:29.789Z,0
2016-12-28T06:16:59.822Z,0
2016-12-28T06:17:29.893Z,0
2016-12-28T06:17:59.902Z,0
2016-12-28T06:18:29.941Z,0
2016-12-28T06:18:59.985Z,0
2016-12-28T06:19:30.025Z,0
2016-12-28T06:20:00.066Z,0
2016-12-28T06:20:30.096Z,0
2016-12-28T06:21:00.135Z,0
2016-12-28T06:21:30.185Z,0
2016-12-28T06:22:00.220Z,0
2016-12-28T06:22:30.260Z,0
2016-12-28T06:23:00.299Z,0
2016-12-28T06:23:30.340Z,0
2016-12-28T06:24:00.384Z,0
2016-12-28T06:24:30.416Z,0
2016-12-28T06:25:00.459Z,0
2016-12-28T06:25:30.496Z,0
2016-12-28T06:26:00.543Z,0
2016-12-28T06:26:30.587Z,0
2016-12-28T06:27:00.619Z,0
2016-12-28T06:27:30.655Z,0
2016-12-28T06:28:00.704Z,0
2016-12-28T06:28:30.733Z,0
2016-12-28T06:29:00.781Z,0
2016-12-28T06:29:30.816Z,0
2016-12-28T06:30:00.851Z,0
2016-12-28T06:30:30.897Z,0
2016-12-28T06:31:00.935Z,0
2016-12-28T06:31:30.975Z,0
2016-12-28T06:32:01.014Z,0
2016-12-28T06:32:31.056Z,0
2016-12-28T06:33:01.089Z,0
2016-12-28T06:33:31.138Z,0
2016-12-28T06:34:01.171Z,0
2016-12-28T06:34:31.208Z,0
2016-12-28T06:35:01.248Z,0
2016-12-28T06:35:31.292Z,0
2016-12-28T06:36:01.329Z,0
2016-12-28T06:36:31.367Z,0
2016-12-28T06:37:01.409Z,0
2016-12-28T06:37:31.448Z,0
2016-12-28T06:38:01.478Z,0
2016-12-28T06:38:31.525Z,0
2016-12-28T06:39:01.686Z,0
2016-12-28T06:39:31.609Z,0
2016-12-28T06:40:01.648Z,0
2016-12-28T06:40:31.687Z,0
2016-12-28T06:41:01.723Z,0
2016-12-28T06:41:31.763Z,0
2016-12-28T06:42:01.799Z,0
2016-12-28T06:42:31.967Z,0
2016-12-28T06:43:01.882Z,0
2016-12-28T06:43:31.918Z,0
2016-12-28T06:44:01.957Z,0
2016-12-28T06:44:32.000Z,0
2016-12-28T06:45:02.048Z,0
2016-12-28T06:45:32.079Z,0
2016-12-28T06:46:02.330Z,0
2016-12-28T06:46:32.156Z,0
2016-12-28T06:47:02.202Z,0
2016-12-28T06:47:32.240Z,0
2016-12-28T06:48:02.580Z,0
2016-12-28T06:48:32.315Z,0
2016-12-28T06:49:02.355Z,0
2016-12-28T06:49:32.391Z,0
2016-12-28T06:50:02.564Z,0
2016-12-28T06:50:32.469Z,0
2016-12-28T06:51:02.710Z,0
2016-12-28T06:51:32.556Z,0
2016-12-28T06:52:02.698Z,0
2016-12-28T06:52:32.629Z,4
2016-12-28T06:53:02.976Z,4
2016-12-28T06:53:32.720Z,4
2016-12-28T06:54:03.102Z,4
2016-12-28T06:54:32.788Z,4
2016-12-28T06:55:03.077Z,4
2016-12-28T06:55:32.868Z,4
2016-12-28T06:56:02.918Z,4
2016-12-28T06:56:32.945Z,4
2016-12-28T06:57:02.987Z,4
2016-12-28T06:57:33.058Z,4
2016-12-28T06:58:03.314Z,4
2016-12-28T06:58:33.232Z,8
2016-12-28T06:59:03.201Z,4
2016-12-28T06:59:33.194Z,4
2016-12-28T07:00:03.531Z,4
2016-12-28T07:00:33.382Z,4
2016-12-28T07:01:03.301Z,4
2016-12-28T07:01:33.348Z,4
2016-12-28T07:02:03.574Z,4
2016-12-28T07:02:33.421Z,8
2016-12-28T07:03:03.465Z,8
2016-12-28T07:03:33.494Z,8
2016-12-28T07:04:03.538Z,8
2016-12-28T07:04:33.589Z,8
2016-12-28T07:05:03.773Z,8
2016-12-28T07:05:33.664Z,8
2016-12-28T07:06:03.843Z,8
2016-12-28T07:06:33.731Z,8
2016-12-28T07:07:03.829Z,8
2016-12-28T07:07:33.805Z,8
2016-12-28T07:08:04.057Z,12
2016-12-28T07:08:33.895Z,8
2016-12-28T07:09:04.034Z,12
2016-12-28T07:09:33.976Z,12
2016-12-28T07:10:04.017Z,16
2016-12-28T07:10:34.057Z,12
2016-12-28T07:11:04.094Z,16
2016-12-28T07:11:34.135Z,16
2016-12-28T07:12:04.169Z,16
2016-12-28T07:12:34.211Z,16
2016-12-28T07:13:04.252Z,20
2016-12-28T07:13:34.284Z,16
2016-12-28T07:14:04.378Z,20
2016-12-28T07:14:34.372Z,24
2016-12-28T07:15:04.404Z,20
2016-12-28T07:15:34.455Z,24
2016-12-28T07:16:04.522Z,24
2016-12-28T07:16:34.526Z,24
2016-12-28T07:17:04.564Z,24
2016-12-28T07:17:34.603Z,24
2016-12-28T07:18:04.647Z,24
2016-12-28T07:18:34.682Z,24
2016-12-28T07:19:04.726Z,24
2016-12-28T07:19:34.759Z,24
2016-12-28T07:20:04.848Z,28
2016-12-28T07:20:34.838Z,28
2016-12-28T07:21:04.886Z,28
2016-12-28T07:21:34.922Z,32
2016-12-28T07:22:04.988Z,32
2016-12-28T07:22:35.010Z,32
2016-12-28T07:23:05.047Z,32
2016-12-28T07:23:35.198Z,32
2016-12-28T07:24:05.114Z,32